sensor_id;sensor_type;location;lat;lon;timestamp;P1;durP1;ratioP1;P2;durP2;ratioP2
1344;SDS011;15375;48.540;9.268;2023-06-14T00:00:32;5.70;;;5.17;;
1344;SDS011;15375;48.540;9.268;2023-06-14T00:02:59;4.70;;;4.30;;
1344;SDS011;15375;48.540;9.268;2023-06-14T00:05:25;5.73;;;5.23;;
1344;SDS011;15375;48.540;9.268;2023-06-14T00:07:50;5.87;;;4.10;;
1344;SDS011;15375;48.540;9.268;2023-06-14T00:10:18;6.40;;;4.20;;
1344;SDS011;15375;48.540;9.268;2023-06-14T00:12:44;5.07;;;4.57;;
1344;SDS011;15375;48.540;9.268;2023-06-14T00:15:10;4.87;;;4.37;;
1344;SDS011;15375;48.540;9.268;2023-06-14T00:17:35;5.50;;;4.77;;
1344;SDS011;15375;48.540;9.268;2023-06-14T00:20:02;5.00;;;4.33;;
1344;SDS011;15375;48.540;9.268;2023-06-14T00:22:31;5.07;;;4.67;;
1344;SDS011;15375;48.540;9.268;2023-06-14T00:24:57;5.43;;;3.90;;
1344;SDS011;15375;48.540;9.268;2023-06-14T00:27:23;5.33;;;4.37;;
1344;SDS011;15375;48.540;9.268;2023-06-14T00:29:49;4.63;;;4.23;;
1344;SDS011;15375;48.540;9.268;2023-06-14T00:32:15;4.87;;;4.20;;
1344;SDS011;15375;48.540;9.268;2023-06-14T00:34:40;4.90;;;4.30;;
1344;SDS011;15375;48.540;9.268;2023-06-14T00:37:06;4.73;;;4.33;;
1344;SDS011;15375;48.540;9.268;2023-06-14T00:39:31;4.53;;;4.13;;
1344;SDS011;15375;48.540;9.268;2023-06-14T00:41:57;9.03;;;5.27;;
1344;SDS011;15375;48.540;9.268;2023-06-14T00:44:22;4.50;;;4.10;;
1344;SDS011;15375;48.540;9.268;2023-06-14T00:46:48;5.50;;;4.60;;
1344;SDS011;15375;48.540;9.268;2023-06-14T00:49:14;4.93;;;4.43;;
1344;SDS011;15375;48.540;9.268;2023-06-14T00:51:42;5.00;;;4.50;;
1344;SDS011;15375;48.540;9.268;2023-06-14T00:54:08;4.50;;;4.17;;
1344;SDS011;15375;48.540;9.268;2023-06-14T00:56:38;9.47;;;4.63;;
1344;SDS011;15375;48.540;9.268;2023-06-14T00:59:04;6.27;;;4.80;;
1344;SDS011;15375;48.540;9.268;2023-06-14T01:01:32;4.57;;;4.17;;
1344;SDS011;15375;48.540;9.268;2023-06-14T01:03:58;6.57;;;4.70;;
1344;SDS011;15375;48.540;9.268;2023-06-14T01:09:40;5.07;;;4.37;;
1344;SDS011;15375;48.540;9.268;2023-06-14T01:12:12;5.60;;;5.10;;
1344;SDS011;15375;48.540;9.268;2023-06-14T01:14:42;4.70;;;4.10;;
1344;SDS011;15375;48.540;9.268;2023-06-14T01:17:08;4.10;;;3.80;;
1344;SDS011;15375;48.540;9.268;2023-06-14T01:19:42;4.60;;;4.20;;
1344;SDS011;15375;48.540;9.268;2023-06-14T01:22:09;5.20;;;4.70;;
1344;SDS011;15375;48.540;9.268;2023-06-14T01:24:35;4.73;;;4.20;;
1344;SDS011;15375;48.540;9.268;2023-06-14T01:27:01;5.50;;;5.00;;
1344;SDS011;15375;48.540;9.268;2023-06-14T01:29:27;4.80;;;4.30;;
1344;SDS011;15375;48.540;9.268;2023-06-14T01:31:57;7.50;;;5.23;;
1344;SDS011;15375;48.540;9.268;2023-06-14T01:34:24;4.70;;;4.30;;
1344;SDS011;15375;48.540;9.268;2023-06-14T01:36:49;4.97;;;4.57;;
1344;SDS011;15375;48.540;9.268;2023-06-14T01:39:15;8.90;;;4.80;;
1344;SDS011;15375;48.540;9.268;2023-06-14T01:41:42;5.60;;;5.03;;
1344;SDS011;15375;48.540;9.268;2023-06-14T01:44:09;4.50;;;4.10;;
1344;SDS011;15375;48.540;9.268;2023-06-14T01:46:35;4.90;;;4.40;;
1344;SDS011;15375;48.540;9.268;2023-06-14T01:49:01;4.47;;;4.03;;
1344;SDS011;15375;48.540;9.268;2023-06-14T01:51:27;4.63;;;4.20;;
1344;SDS011;15375;48.540;9.268;2023-06-14T01:53:53;4.60;;;4.20;;
1344;SDS011;15375;48.540;9.268;2023-06-14T01:56:18;5.40;;;4.90;;
1344;SDS011;15375;48.540;9.268;2023-06-14T01:58:43;4.60;;;4.20;;
1344;SDS011;15375;48.540;9.268;2023-06-14T02:01:09;5.43;;;4.30;;
1344;SDS011;15375;48.540;9.268;2023-06-14T02:03:36;6.60;;;4.27;;
1344;SDS011;15375;48.540;9.268;2023-06-14T02:06:03;5.40;;;4.63;;
1344;SDS011;15375;48.540;9.268;2023-06-14T02:08:28;7.03;;;3.77;;
1344;SDS011;15375;48.540;9.268;2023-06-14T02:10:54;4.90;;;4.20;;
1344;SDS011;15375;48.540;9.268;2023-06-14T02:13:19;8.50;;;4.37;;
1344;SDS011;15375;48.540;9.268;2023-06-14T02:15:44;4.30;;;3.90;;
1344;SDS011;15375;48.540;9.268;2023-06-14T02:18:10;4.10;;;3.70;;
1344;SDS011;15375;48.540;9.268;2023-06-14T02:20:36;5.20;;;4.73;;
1344;SDS011;15375;48.540;9.268;2023-06-14T02:23:01;8.60;;;4.70;;
1344;SDS011;15375;48.540;9.268;2023-06-14T02:25:27;5.00;;;4.47;;
1344;SDS011;15375;48.540;9.268;2023-06-14T02:27:53;4.70;;;4.30;;
1344;SDS011;15375;48.540;9.268;2023-06-14T02:30:20;5.10;;;4.70;;
1344;SDS011;15375;48.540;9.268;2023-06-14T02:32:45;6.30;;;4.70;;
1344;SDS011;15375;48.540;9.268;2023-06-14T02:35:11;6.20;;;4.60;;
1344;SDS011;15375;48.540;9.268;2023-06-14T02:37:38;5.00;;;4.50;;
1344;SDS011;15375;48.540;9.268;2023-06-14T02:40:04;5.00;;;4.60;;
1344;SDS011;15375;48.540;9.268;2023-06-14T02:42:31;4.90;;;4.50;;
1344;SDS011;15375;48.540;9.268;2023-06-14T02:44:56;5.43;;;4.83;;
1344;SDS011;15375;48.540;9.268;2023-06-14T02:47:25;4.63;;;4.13;;
1344;SDS011;15375;48.540;9.268;2023-06-14T02:49:50;5.17;;;4.47;;
1344;SDS011;15375;48.540;9.268;2023-06-14T02:52:16;4.60;;;4.20;;
1344;SDS011;15375;48.540;9.268;2023-06-14T02:54:41;5.40;;;4.63;;
1344;SDS011;15375;48.540;9.268;2023-06-14T02:57:07;4.90;;;4.40;;
1344;SDS011;15375;48.540;9.268;2023-06-14T02:59:32;5.50;;;4.30;;
1344;SDS011;15375;48.540;9.268;2023-06-14T03:01:58;5.40;;;4.90;;
1344;SDS011;15375;48.540;9.268;2023-06-14T03:04:24;5.10;;;4.70;;
1344;SDS011;15375;48.540;9.268;2023-06-14T03:06:51;4.60;;;4.17;;
1344;SDS011;15375;48.540;9.268;2023-06-14T03:09:17;5.40;;;4.00;;
1344;SDS011;15375;48.540;9.268;2023-06-14T03:11:42;4.90;;;4.40;;
1344;SDS011;15375;48.540;9.268;2023-06-14T03:14:07;5.47;;;4.97;;
1344;SDS011;15375;48.540;9.268;2023-06-14T03:16:33;4.73;;;3.77;;
1344;SDS011;15375;48.540;9.268;2023-06-14T03:18:59;5.93;;;4.40;;
1344;SDS011;15375;48.540;9.268;2023-06-14T03:21:24;5.83;;;4.10;;
1344;SDS011;15375;48.540;9.268;2023-06-14T03:23:51;4.80;;;4.40;;
1344;SDS011;15375;48.540;9.268;2023-06-14T03:26:18;6.53;;;4.70;;
1344;SDS011;15375;48.540;9.268;2023-06-14T03:28:44;10.90;;;5.03;;
1344;SDS011;15375;48.540;9.268;2023-06-14T03:31:10;5.07;;;4.10;;
1344;SDS011;15375;48.540;9.268;2023-06-14T03:33:36;5.57;;;4.37;;
1344;SDS011;15375;48.540;9.268;2023-06-14T03:36:02;7.53;;;5.03;;
1344;SDS011;15375;48.540;9.268;2023-06-14T03:38:28;5.47;;;4.60;;
1344;SDS011;15375;48.540;9.268;2023-06-14T03:40:54;4.53;;;4.13;;
1344;SDS011;15375;48.540;9.268;2023-06-14T03:43:19;5.17;;;4.67;;
1344;SDS011;15375;48.540;9.268;2023-06-14T03:45:45;5.87;;;4.20;;
1344;SDS011;15375;48.540;9.268;2023-06-14T03:48:10;4.90;;;4.50;;
1344;SDS011;15375;48.540;9.268;2023-06-14T03:50:36;4.90;;;4.37;;
1344;SDS011;15375;48.540;9.268;2023-06-14T03:53:03;5.70;;;4.87;;
1344;SDS011;15375;48.540;9.268;2023-06-14T03:55:29;5.70;;;4.47;;
1344;SDS011;15375;48.540;9.268;2023-06-14T03:57:56;4.60;;;4.20;;
1344;SDS011;15375;48.540;9.268;2023-06-14T04:00:21;6.03;;;4.93;;
1344;SDS011;15375;48.540;9.268;2023-06-14T04:02:47;6.20;;;4.67;;
1344;SDS011;15375;48.540;9.268;2023-06-14T04:05:13;7.33;;;4.67;;
1344;SDS011;15375;48.540;9.268;2023-06-14T04:07:41;5.30;;;4.70;;
1344;SDS011;15375;48.540;9.268;2023-06-14T04:10:10;5.37;;;4.87;;
1344;SDS011;15375;48.540;9.268;2023-06-14T04:12:36;6.90;;;5.00;;
1344;SDS011;15375;48.540;9.268;2023-06-14T04:15:01;6.90;;;4.73;;
1344;SDS011;15375;48.540;9.268;2023-06-14T04:17:27;5.00;;;4.50;;
1344;SDS011;15375;48.540;9.268;2023-06-14T04:19:53;6.70;;;5.10;;
1344;SDS011;15375;48.540;9.268;2023-06-14T04:22:18;5.37;;;4.83;;
1344;SDS011;15375;48.540;9.268;2023-06-14T04:24:43;8.17;;;5.43;;
1344;SDS011;15375;48.540;9.268;2023-06-14T04:27:10;4.90;;;4.37;;
1344;SDS011;15375;48.540;9.268;2023-06-14T04:29:35;6.10;;;4.80;;
1344;SDS011;15375;48.540;9.268;2023-06-14T04:32:00;5.20;;;4.70;;
1344;SDS011;15375;48.540;9.268;2023-06-14T04:34:26;8.63;;;4.60;;
1344;SDS011;15375;48.540;9.268;2023-06-14T04:36:54;6.20;;;5.30;;
1344;SDS011;15375;48.540;9.268;2023-06-14T04:39:21;8.77;;;5.47;;
1344;SDS011;15375;48.540;9.268;2023-06-14T04:41:47;6.50;;;4.97;;
1344;SDS011;15375;48.540;9.268;2023-06-14T04:44:12;6.77;;;5.20;;
1344;SDS011;15375;48.540;9.268;2023-06-14T04:46:38;5.37;;;4.87;;
1344;SDS011;15375;48.540;9.268;2023-06-14T04:49:17;6.60;;;5.10;;
1344;SDS011;15375;48.540;9.268;2023-06-14T04:51:43;7.20;;;4.60;;
1344;SDS011;15375;48.540;9.268;2023-06-14T04:54:09;6.90;;;5.17;;
1344;SDS011;15375;48.540;9.268;2023-06-14T04:56:38;8.47;;;5.20;;
1344;SDS011;15375;48.540;9.268;2023-06-14T04:59:03;5.50;;;5.00;;
1344;SDS011;15375;48.540;9.268;2023-06-14T05:01:32;8.20;;;5.50;;
1344;SDS011;15375;48.540;9.268;2023-06-14T05:03:58;6.40;;;5.53;;
1344;SDS011;15375;48.540;9.268;2023-06-14T05:06:24;6.17;;;5.57;;
1344;SDS011;15375;48.540;9.268;2023-06-14T05:08:51;12.50;;;6.60;;
1344;SDS011;15375;48.540;9.268;2023-06-14T05:11:16;8.20;;;6.63;;
1344;SDS011;15375;48.540;9.268;2023-06-14T05:13:44;6.60;;;5.80;;
1344;SDS011;15375;48.540;9.268;2023-06-14T05:16:10;8.87;;;7.27;;
1344;SDS011;15375;48.540;9.268;2023-06-14T05:18:36;8.47;;;6.80;;
1344;SDS011;15375;48.540;9.268;2023-06-14T05:21:03;7.00;;;6.30;;
1344;SDS011;15375;48.540;9.268;2023-06-14T05:23:30;7.57;;;5.47;;
1344;SDS011;15375;48.540;9.268;2023-06-14T05:25:56;6.30;;;5.70;;
1344;SDS011;15375;48.540;9.268;2023-06-14T05:28:21;6.77;;;6.00;;
1344;SDS011;15375;48.540;9.268;2023-06-14T05:30:47;7.40;;;6.70;;
1344;SDS011;15375;48.540;9.268;2023-06-14T05:33:13;10.10;;;7.60;;
1344;SDS011;15375;48.540;9.268;2023-06-14T05:35:38;9.97;;;7.30;;
1344;SDS011;15375;48.540;9.268;2023-06-14T05:38:03;7.83;;;6.90;;
1344;SDS011;15375;48.540;9.268;2023-06-14T05:40:29;7.87;;;7.20;;
1344;SDS011;15375;48.540;9.268;2023-06-14T05:42:54;7.63;;;7.03;;
1344;SDS011;15375;48.540;9.268;2023-06-14T05:45:20;10.20;;;8.17;;
1344;SDS011;15375;48.540;9.268;2023-06-14T05:47:45;8.03;;;6.17;;
1344;SDS011;15375;48.540;9.268;2023-06-14T05:50:10;7.90;;;7.10;;
1344;SDS011;15375;48.540;9.268;2023-06-14T05:52:36;9.47;;;7.77;;
1344;SDS011;15375;48.540;9.268;2023-06-14T05:55:02;7.70;;;7.10;;
1344;SDS011;15375;48.540;9.268;2023-06-14T05:57:28;7.50;;;6.80;;
1344;SDS011;15375;48.540;9.268;2023-06-14T05:59:54;7.63;;;6.70;;
1344;SDS011;15375;48.540;9.268;2023-06-14T06:02:19;9.40;;;7.77;;
1344;SDS011;15375;48.540;9.268;2023-06-14T06:04:45;7.60;;;6.73;;
1344;SDS011;15375;48.540;9.268;2023-06-14T06:07:10;7.53;;;6.67;;
1344;SDS011;15375;48.540;9.268;2023-06-14T06:09:35;10.03;;;8.17;;
1344;SDS011;15375;48.540;9.268;2023-06-14T06:12:01;8.53;;;7.83;;
1344;SDS011;15375;48.540;9.268;2023-06-14T06:14:26;8.47;;;7.77;;
1344;SDS011;15375;48.540;9.268;2023-06-14T06:16:52;10.03;;;7.13;;
1344;SDS011;15375;48.540;9.268;2023-06-14T06:19:18;5.90;;;5.40;;
1344;SDS011;15375;48.540;9.268;2023-06-14T06:21:43;7.00;;;6.50;;
1344;SDS011;15375;48.540;9.268;2023-06-14T06:24:09;6.00;;;5.50;;
1344;SDS011;15375;48.540;9.268;2023-06-14T06:26:34;8.20;;;7.50;;
1344;SDS011;15375;48.540;9.268;2023-06-14T06:28:59;7.53;;;6.93;;
1344;SDS011;15375;48.540;9.268;2023-06-14T06:31:25;8.00;;;6.63;;
1344;SDS011;15375;48.540;9.268;2023-06-14T06:33:52;7.30;;;6.63;;
1344;SDS011;15375;48.540;9.268;2023-06-14T06:36:19;7.70;;;7.10;;
1344;SDS011;15375;48.540;9.268;2023-06-14T06:38:45;7.10;;;6.60;;
1344;SDS011;15375;48.540;9.268;2023-06-14T06:41:10;6.60;;;6.00;;
1344;SDS011;15375;48.540;9.268;2023-06-14T06:43:35;6.30;;;5.80;;
1344;SDS011;15375;48.540;9.268;2023-06-14T06:46:01;7.80;;;7.20;;
1344;SDS011;15375;48.540;9.268;2023-06-14T06:48:27;7.47;;;6.87;;
1344;SDS011;15375;48.540;9.268;2023-06-14T06:50:52;7.17;;;6.50;;
1344;SDS011;15375;48.540;9.268;2023-06-14T06:53:18;8.60;;;7.90;;
1344;SDS011;15375;48.540;9.268;2023-06-14T06:55:43;8.30;;;7.50;;
1344;SDS011;15375;48.540;9.268;2023-06-14T06:58:09;8.60;;;7.90;;
1344;SDS011;15375;48.540;9.268;2023-06-14T07:00:35;9.97;;;8.53;;
1344;SDS011;15375;48.540;9.268;2023-06-14T07:03:00;8.77;;;7.40;;
1344;SDS011;15375;48.540;9.268;2023-06-14T07:05:26;8.83;;;8.13;;
1344;SDS011;15375;48.540;9.268;2023-06-14T07:07:52;9.70;;;8.67;;
1344;SDS011;15375;48.540;9.268;2023-06-14T07:10:17;8.30;;;7.50;;
1344;SDS011;15375;48.540;9.268;2023-06-14T07:12:43;9.43;;;8.63;;
1344;SDS011;15375;48.540;9.268;2023-06-14T07:15:09;8.17;;;7.57;;
1344;SDS011;15375;48.540;9.268;2023-06-14T07:17:37;7.27;;;6.77;;
1344;SDS011;15375;48.540;9.268;2023-06-14T07:20:03;9.90;;;6.80;;
1344;SDS011;15375;48.540;9.268;2023-06-14T07:22:33;8.77;;;6.77;;
1344;SDS011;15375;48.540;9.268;2023-06-14T07:24:58;15.20;;;7.00;;
1344;SDS011;15375;48.540;9.268;2023-06-14T07:27:23;7.60;;;6.30;;
1344;SDS011;15375;48.540;9.268;2023-06-14T07:29:49;8.00;;;7.40;;
1344;SDS011;15375;48.540;9.268;2023-06-14T07:32:14;10.47;;;7.10;;
1344;SDS011;15375;48.540;9.268;2023-06-14T07:34:40;7.00;;;6.40;;
1344;SDS011;15375;48.540;9.268;2023-06-14T07:37:05;6.37;;;5.87;;
1344;SDS011;15375;48.540;9.268;2023-06-14T07:39:30;8.30;;;7.50;;
1344;SDS011;15375;48.540;9.268;2023-06-14T07:41:56;7.10;;;6.50;;
1344;SDS011;15375;48.540;9.268;2023-06-14T07:44:21;11.70;;;6.50;;
1344;SDS011;15375;48.540;9.268;2023-06-14T07:46:47;7.33;;;6.67;;
1344;SDS011;15375;48.540;9.268;2023-06-14T07:49:14;7.80;;;7.10;;
1344;SDS011;15375;48.540;9.268;2023-06-14T07:51:39;7.60;;;7.00;;
1344;SDS011;15375;48.540;9.268;2023-06-14T07:54:05;10.30;;;7.80;;
1344;SDS011;15375;48.540;9.268;2023-06-14T07:56:32;8.80;;;7.00;;
1344;SDS011;15375;48.540;9.268;2023-06-14T07:58:57;7.17;;;6.57;;
1344;SDS011;15375;48.540;9.268;2023-06-14T08:01:23;6.70;;;6.10;;
1344;SDS011;15375;48.540;9.268;2023-06-14T08:03:50;7.50;;;6.67;;
1344;SDS011;15375;48.540;9.268;2023-06-14T08:06:15;6.97;;;6.37;;
1344;SDS011;15375;48.540;9.268;2023-06-14T08:08:41;7.40;;;6.70;;
1344;SDS011;15375;48.540;9.268;2023-06-14T08:11:06;6.60;;;6.00;;
1344;SDS011;15375;48.540;9.268;2023-06-14T08:13:32;7.40;;;6.60;;
1344;SDS011;15375;48.540;9.268;2023-06-14T08:15:57;6.60;;;5.97;;
1344;SDS011;15375;48.540;9.268;2023-06-14T08:18:23;9.07;;;6.80;;
1344;SDS011;15375;48.540;9.268;2023-06-14T08:20:49;6.23;;;5.73;;
1344;SDS011;15375;48.540;9.268;2023-06-14T08:23:15;7.47;;;6.87;;
1344;SDS011;15375;48.540;9.268;2023-06-14T08:25:44;6.40;;;5.90;;
1344;SDS011;15375;48.540;9.268;2023-06-14T08:28:09;10.90;;;6.37;;
1344;SDS011;15375;48.540;9.268;2023-06-14T08:30:35;6.90;;;6.40;;
1344;SDS011;15375;48.540;9.268;2023-06-14T08:33:00;6.30;;;5.70;;
1344;SDS011;15375;48.540;9.268;2023-06-14T08:35:26;7.97;;;6.70;;
1344;SDS011;15375;48.540;9.268;2023-06-14T08:37:51;7.20;;;6.23;;
1344;SDS011;15375;48.540;9.268;2023-06-14T08:40:23;6.70;;;6.10;;
1344;SDS011;15375;48.540;9.268;2023-06-14T08:42:52;7.40;;;6.40;;
1344;SDS011;15375;48.540;9.268;2023-06-14T08:45:22;9.30;;;6.70;;
1344;SDS011;15375;48.540;9.268;2023-06-14T08:47:49;7.10;;;6.43;;
1344;SDS011;15375;48.540;9.268;2023-06-14T08:50:22;6.20;;;5.70;;
1344;SDS011;15375;48.540;9.268;2023-06-14T08:52:51;9.50;;;6.03;;
1344;SDS011;15375;48.540;9.268;2023-06-14T08:55:19;6.50;;;5.90;;
1344;SDS011;15375;48.540;9.268;2023-06-14T08:57:47;7.17;;;6.10;;
1344;SDS011;15375;48.540;9.268;2023-06-14T09:00:14;6.93;;;6.33;;
1344;SDS011;15375;48.540;9.268;2023-06-14T09:02:40;6.80;;;6.10;;
1344;SDS011;15375;48.540;9.268;2023-06-14T09:05:08;8.33;;;6.70;;
1344;SDS011;15375;48.540;9.268;2023-06-14T09:07:34;5.53;;;5.13;;
1344;SDS011;15375;48.540;9.268;2023-06-14T09:12:35;7.33;;;6.33;;
1344;SDS011;15375;48.540;9.268;2023-06-14T09:15:01;9.63;;;5.47;;
1344;SDS011;15375;48.540;9.268;2023-06-14T09:17:32;6.63;;;5.90;;
1344;SDS011;15375;48.540;9.268;2023-06-14T09:19:58;6.13;;;5.53;;
1344;SDS011;15375;48.540;9.268;2023-06-14T09:22:23;6.03;;;5.30;;
1344;SDS011;15375;48.540;9.268;2023-06-14T09:24:49;6.07;;;5.47;;
1344;SDS011;15375;48.540;9.268;2023-06-14T09:27:15;6.83;;;5.53;;
1344;SDS011;15375;48.540;9.268;2023-06-14T09:29:41;6.30;;;5.80;;
1344;SDS011;15375;48.540;9.268;2023-06-14T09:32:06;5.90;;;5.30;;
1344;SDS011;15375;48.540;9.268;2023-06-14T09:34:32;5.77;;;5.27;;
1344;SDS011;15375;48.540;9.268;2023-06-14T09:36:59;5.97;;;5.47;;
1344;SDS011;15375;48.540;9.268;2023-06-14T09:39:25;9.50;;;6.60;;
1344;SDS011;15375;48.540;9.268;2023-06-14T09:41:50;6.27;;;5.77;;
1344;SDS011;15375;48.540;9.268;2023-06-14T09:44:15;6.43;;;5.17;;
1344;SDS011;15375;48.540;9.268;2023-06-14T09:46:43;6.20;;;5.60;;
1344;SDS011;15375;48.540;9.268;2023-06-14T09:49:09;6.80;;;6.20;;
1344;SDS011;15375;48.540;9.268;2023-06-14T09:51:34;6.10;;;5.60;;
1344;SDS011;15375;48.540;9.268;2023-06-14T09:54:07;5.63;;;5.13;;
1344;SDS011;15375;48.540;9.268;2023-06-14T09:56:37;5.23;;;4.83;;
1344;SDS011;15375;48.540;9.268;2023-06-14T09:59:05;7.67;;;6.83;;
1344;SDS011;15375;48.540;9.268;2023-06-14T10:01:34;6.73;;;6.13;;
1344;SDS011;15375;48.540;9.268;2023-06-14T10:04:06;9.37;;;5.60;;
1344;SDS011;15375;48.540;9.268;2023-06-14T10:06:34;7.63;;;6.40;;
1344;SDS011;15375;48.540;9.268;2023-06-14T10:09:02;5.57;;;5.07;;
1344;SDS011;15375;48.540;9.268;2023-06-14T10:11:29;6.00;;;5.40;;
1344;SDS011;15375;48.540;9.268;2023-06-14T10:13:55;5.27;;;4.87;;
1344;SDS011;15375;48.540;9.268;2023-06-14T10:24:13;5.30;;;4.90;;
1344;SDS011;15375;48.540;9.268;2023-06-14T10:27:00;9.67;;;5.40;;
1344;SDS011;15375;48.540;9.268;2023-06-14T10:29:29;6.23;;;5.20;;
1344;SDS011;15375;48.540;9.268;2023-06-14T10:31:58;5.60;;;5.20;;
1344;SDS011;15375;48.540;9.268;2023-06-14T10:34:28;5.20;;;4.70;;
1344;SDS011;15375;48.540;9.268;2023-06-14T10:37:02;5.17;;;4.67;;
1344;SDS011;15375;48.540;9.268;2023-06-14T10:39:31;5.60;;;5.10;;
1344;SDS011;15375;48.540;9.268;2023-06-14T10:42:01;6.03;;;5.53;;
1344;SDS011;15375;48.540;9.268;2023-06-14T10:46:55;6.03;;;5.53;;
1344;SDS011;15375;48.540;9.268;2023-06-14T10:52:14;5.80;;;5.17;;
1344;SDS011;15375;48.540;9.268;2023-06-14T10:57:38;5.37;;;4.97;;
1344;SDS011;15375;48.540;9.268;2023-06-14T11:00:05;5.83;;;5.37;;
1344;SDS011;15375;48.540;9.268;2023-06-14T11:05:10;5.40;;;4.90;;
1344;SDS011;15375;48.540;9.268;2023-06-14T11:13:01;6.93;;;5.23;;
1344;SDS011;15375;48.540;9.268;2023-06-14T11:15:31;6.27;;;5.73;;
1344;SDS011;15375;48.540;9.268;2023-06-14T11:17:57;6.20;;;5.60;;
1344;SDS011;15375;48.540;9.268;2023-06-14T11:20:27;5.30;;;4.90;;
1344;SDS011;15375;48.540;9.268;2023-06-14T11:22:54;5.63;;;5.10;;
1344;SDS011;15375;48.540;9.268;2023-06-14T11:25:20;5.60;;;5.10;;
1344;SDS011;15375;48.540;9.268;2023-06-14T11:27:45;5.10;;;4.67;;
1344;SDS011;15375;48.540;9.268;2023-06-14T11:30:11;5.70;;;5.20;;
1344;SDS011;15375;48.540;9.268;2023-06-14T11:32:38;9.40;;;5.60;;
1344;SDS011;15375;48.540;9.268;2023-06-14T11:35:04;8.30;;;5.30;;
1344;SDS011;15375;48.540;9.268;2023-06-14T11:37:30;6.53;;;6.03;;
1344;SDS011;15375;48.540;9.268;2023-06-14T11:39:58;5.80;;;5.30;;
1344;SDS011;15375;48.540;9.268;2023-06-14T11:42:24;5.30;;;4.90;;
1344;SDS011;15375;48.540;9.268;2023-06-14T11:44:52;7.13;;;6.47;;
1344;SDS011;15375;48.540;9.268;2023-06-14T11:47:18;5.60;;;5.10;;
1344;SDS011;15375;48.540;9.268;2023-06-14T11:49:44;6.23;;;5.67;;
1344;SDS011;15375;48.540;9.268;2023-06-14T11:52:09;5.90;;;5.37;;
1344;SDS011;15375;48.540;9.268;2023-06-14T11:54:36;6.23;;;5.73;;
1344;SDS011;15375;48.540;9.268;2023-06-14T11:57:02;6.70;;;6.20;;
1344;SDS011;15375;48.540;9.268;2023-06-14T11:59:29;7.20;;;6.40;;
1344;SDS011;15375;48.540;9.268;2023-06-14T12:01:56;6.07;;;5.57;;
1344;SDS011;15375;48.540;9.268;2023-06-14T12:04:25;5.93;;;5.33;;
1344;SDS011;15375;48.540;9.268;2023-06-14T12:06:52;6.77;;;6.17;;
1344;SDS011;15375;48.540;9.268;2023-06-14T12:09:20;6.70;;;6.10;;
1344;SDS011;15375;48.540;9.268;2023-06-14T12:11:48;6.40;;;5.80;;
1344;SDS011;15375;48.540;9.268;2023-06-14T12:14:14;6.50;;;5.90;;
1344;SDS011;15375;48.540;9.268;2023-06-14T12:16:40;7.37;;;6.77;;
1344;SDS011;15375;48.540;9.268;2023-06-14T12:19:15;6.80;;;6.10;;
1344;SDS011;15375;48.540;9.268;2023-06-14T12:21:42;5.80;;;5.30;;
1344;SDS011;15375;48.540;9.268;2023-06-14T12:24:12;6.70;;;5.80;;
1344;SDS011;15375;48.540;9.268;2023-06-14T12:26:38;6.97;;;6.30;;
1344;SDS011;15375;48.540;9.268;2023-06-14T12:29:05;8.30;;;5.83;;
1344;SDS011;15375;48.540;9.268;2023-06-14T12:31:31;7.20;;;6.60;;
1344;SDS011;15375;48.540;9.268;2023-06-14T12:33:56;6.53;;;6.03;;
1344;SDS011;15375;48.540;9.268;2023-06-14T12:36:22;6.80;;;6.20;;
1344;SDS011;15375;48.540;9.268;2023-06-14T12:38:47;6.50;;;6.00;;
1344;SDS011;15375;48.540;9.268;2023-06-14T12:41:13;6.77;;;6.17;;
1344;SDS011;15375;48.540;9.268;2023-06-14T12:43:39;6.90;;;6.37;;
1344;SDS011;15375;48.540;9.268;2023-06-14T12:46:04;6.57;;;5.80;;
1344;SDS011;15375;48.540;9.268;2023-06-14T12:48:30;6.03;;;5.53;;
1344;SDS011;15375;48.540;9.268;2023-06-14T12:50:56;7.00;;;6.30;;
1344;SDS011;15375;48.540;9.268;2023-06-14T12:53:22;7.27;;;6.60;;
1344;SDS011;15375;48.540;9.268;2023-06-14T12:55:48;7.20;;;6.03;;
1344;SDS011;15375;48.540;9.268;2023-06-14T12:58:13;6.50;;;6.00;;
1344;SDS011;15375;48.540;9.268;2023-06-14T13:00:39;8.77;;;6.17;;
1344;SDS011;15375;48.540;9.268;2023-06-14T13:03:05;6.57;;;5.90;;
1344;SDS011;15375;48.540;9.268;2023-06-14T13:05:30;6.43;;;5.93;;
1344;SDS011;15375;48.540;9.268;2023-06-14T13:07:58;6.97;;;6.30;;
1344;SDS011;15375;48.540;9.268;2023-06-14T13:10:24;6.40;;;5.90;;
1344;SDS011;15375;48.540;9.268;2023-06-14T13:12:50;10.00;;;6.90;;
1344;SDS011;15375;48.540;9.268;2023-06-14T13:15:16;6.70;;;6.13;;
1344;SDS011;15375;48.540;9.268;2023-06-14T13:17:42;6.60;;;6.00;;
1344;SDS011;15375;48.540;9.268;2023-06-14T13:20:09;8.27;;;6.93;;
1344;SDS011;15375;48.540;9.268;2023-06-14T13:22:35;7.67;;;5.90;;
1344;SDS011;15375;48.540;9.268;2023-06-14T13:25:01;6.43;;;5.83;;
1344;SDS011;15375;48.540;9.268;2023-06-14T13:27:26;12.13;;;5.73;;
1344;SDS011;15375;48.540;9.268;2023-06-14T13:29:52;5.93;;;5.43;;
1344;SDS011;15375;48.540;9.268;2023-06-14T13:32:20;6.00;;;5.40;;
1344;SDS011;15375;48.540;9.268;2023-06-14T13:34:47;6.53;;;5.73;;
1344;SDS011;15375;48.540;9.268;2023-06-14T13:37:12;9.13;;;6.50;;
1344;SDS011;15375;48.540;9.268;2023-06-14T13:39:37;7.67;;;6.50;;
1344;SDS011;15375;48.540;9.268;2023-06-14T13:42:03;6.03;;;5.47;;
1344;SDS011;15375;48.540;9.268;2023-06-14T13:44:29;6.30;;;5.80;;
1344;SDS011;15375;48.540;9.268;2023-06-14T13:46:54;6.40;;;5.80;;
1344;SDS011;15375;48.540;9.268;2023-06-14T13:49:19;9.83;;;6.60;;
1344;SDS011;15375;48.540;9.268;2023-06-14T13:51:45;8.60;;;6.03;;
1344;SDS011;15375;48.540;9.268;2023-06-14T13:54:12;5.97;;;5.37;;
1344;SDS011;15375;48.540;9.268;2023-06-14T13:56:39;5.53;;;5.03;;
1344;SDS011;15375;48.540;9.268;2023-06-14T13:59:04;6.80;;;6.10;;
1344;SDS011;15375;48.540;9.268;2023-06-14T14:01:30;8.00;;;5.83;;
1344;SDS011;15375;48.540;9.268;2023-06-14T14:03:55;6.80;;;5.50;;
1344;SDS011;15375;48.540;9.268;2023-06-14T14:06:21;6.27;;;5.67;;
1344;SDS011;15375;48.540;9.268;2023-06-14T14:08:46;6.13;;;5.63;;
1344;SDS011;15375;48.540;9.268;2023-06-14T14:11:12;5.53;;;5.07;;
1344;SDS011;15375;48.540;9.268;2023-06-14T14:13:37;6.83;;;4.97;;
1344;SDS011;15375;48.540;9.268;2023-06-14T14:16:04;7.53;;;6.07;;
1344;SDS011;15375;48.540;9.268;2023-06-14T14:18:30;8.00;;;6.00;;
1344;SDS011;15375;48.540;9.268;2023-06-14T14:20:55;5.90;;;5.43;;
1344;SDS011;15375;48.540;9.268;2023-06-14T14:23:21;5.80;;;5.30;;
1344;SDS011;15375;48.540;9.268;2023-06-14T14:25:47;6.47;;;5.87;;
1344;SDS011;15375;48.540;9.268;2023-06-14T14:28:12;6.03;;;5.53;;
1344;SDS011;15375;48.540;9.268;2023-06-14T14:30:40;6.83;;;6.13;;
1344;SDS011;15375;48.540;9.268;2023-06-14T14:33:06;7.23;;;5.80;;
1344;SDS011;15375;48.540;9.268;2023-06-14T14:35:32;9.23;;;5.73;;
1344;SDS011;15375;48.540;9.268;2023-06-14T14:37:57;6.90;;;6.30;;
1344;SDS011;15375;48.540;9.268;2023-06-14T14:40:25;8.23;;;5.53;;
1344;SDS011;15375;48.540;9.268;2023-06-14T14:42:51;5.90;;;5.40;;
1344;SDS011;15375;48.540;9.268;2023-06-14T14:45:16;7.93;;;7.07;;
1344;SDS011;15375;48.540;9.268;2023-06-14T14:47:42;6.37;;;5.87;;
1344;SDS011;15375;48.540;9.268;2023-06-14T14:50:07;5.97;;;5.37;;
1344;SDS011;15375;48.540;9.268;2023-06-14T14:52:34;6.73;;;6.23;;
1344;SDS011;15375;48.540;9.268;2023-06-14T14:55:00;7.13;;;6.50;;
1344;SDS011;15375;48.540;9.268;2023-06-14T14:57:26;8.33;;;6.60;;
1344;SDS011;15375;48.540;9.268;2023-06-14T14:59:51;6.20;;;5.70;;
1344;SDS011;15375;48.540;9.268;2023-06-14T15:02:17;7.23;;;6.07;;
1344;SDS011;15375;48.540;9.268;2023-06-14T15:04:42;6.70;;;6.10;;
1344;SDS011;15375;48.540;9.268;2023-06-14T15:07:07;9.60;;;5.43;;
1344;SDS011;15375;48.540;9.268;2023-06-14T15:09:33;7.13;;;5.10;;
1344;SDS011;15375;48.540;9.268;2023-06-14T15:11:58;6.63;;;5.93;;
1344;SDS011;15375;48.540;9.268;2023-06-14T15:14:24;10.90;;;6.13;;
1344;SDS011;15375;48.540;9.268;2023-06-14T15:16:49;7.17;;;6.47;;
1344;SDS011;15375;48.540;9.268;2023-06-14T15:19:17;6.40;;;5.90;;
1344;SDS011;15375;48.540;9.268;2023-06-14T15:21:43;9.97;;;5.50;;
1344;SDS011;15375;48.540;9.268;2023-06-14T15:24:08;6.23;;;5.63;;